createdAt,value
2022-11-19T00:02:20.099Z,9.70
2022-11-19T00:04:46.977Z,9.10
2022-11-19T00:07:13.826Z,10.17
2022-11-19T00:09:40.646Z,9.37
2022-11-19T00:12:26.042Z,10.40
2022-11-19T00:14:52.939Z,9.73
2022-11-19T00:17:19.721Z,8.40
2022-11-19T00:19:46.514Z,8.93
2022-11-19T00:22:13.419Z,9.60
2022-11-19T00:24:40.297Z,10.10
2022-11-19T00:27:07.315Z,9.00
2022-11-19T00:29:34.145Z,8.20
2022-11-19T00:32:00.903Z,9.53
2022-11-19T00:34:27.813Z,9.43
2022-11-19T00:36:54.617Z,8.63
2022-11-19T00:39:22.189Z,9.17
2022-11-19T00:41:49.256Z,9.80
2022-11-19T00:44:16.005Z,8.57
2022-11-19T00:46:42.852Z,9.20
2022-11-19T00:49:09.728Z,8.97
2022-11-19T00:51:36.804Z,8.77
2022-11-19T00:54:03.644Z,8.40
2022-11-19T00:56:30.475Z,8.27
2022-11-19T00:58:57.384Z,9.33
2022-11-19T01:01:25.079Z,9.00
2022-11-19T01:03:52.475Z,9.60
2022-11-19T01:06:20.891Z,9.77
2022-11-19T01:08:48.733Z,9.87
2022-11-19T01:11:25.281Z,9.33
2022-11-19T01:13:52.443Z,10.97
2022-11-19T01:16:38.108Z,10.73
2022-11-19T01:19:05.676Z,10.63
2022-11-19T01:21:33.788Z,10.67
2022-11-19T01:24:01.075Z,11.47
2022-11-19T01:29:57.202Z,10.37
2022-11-19T01:32:23.939Z,10.43
2022-11-19T01:34:51.435Z,11.70
2022-11-19T01:37:18.279Z,11.33
2022-11-19T01:39:45.032Z,12.20
2022-11-19T01:42:38.716Z,12.03
2022-11-19T01:45:06.723Z,11.47
2022-11-19T01:47:33.726Z,11.67
2022-11-19T01:50:00.741Z,12.37
2022-11-19T01:52:27.766Z,11.70
2022-11-19T01:54:55.819Z,12.70
2022-11-19T01:57:22.647Z,12.43
2022-11-19T01:59:51.488Z,12.70
2022-11-19T02:02:19.969Z,12.57
2022-11-19T02:04:47.362Z,11.53
2022-11-19T02:07:14.360Z,12.77
2022-11-19T02:09:41.404Z,11.97
2022-11-19T02:12:34.462Z,11.63
2022-11-19T02:15:06.474Z,12.63
2022-11-19T02:17:33.347Z,13.40
2022-11-19T02:20:00.055Z,13.33
2022-11-19T02:22:26.901Z,12.83
2022-11-19T02:24:54.593Z,12.73
2022-11-19T02:27:24.475Z,11.83
2022-11-19T02:29:51.317Z,13.30
2022-11-19T02:32:20.921Z,13.20
2022-11-19T02:34:50.889Z,14.43
2022-11-19T02:37:30.103Z,13.70
2022-11-19T02:40:06.236Z,13.87
2022-11-19T02:42:53.401Z,13.57
2022-11-19T02:45:24.057Z,14.20
2022-11-19T02:47:52.194Z,13.87
2022-11-19T02:50:21.021Z,15.60
2022-11-19T02:52:48.586Z,14.20
2022-11-19T02:55:16.551Z,12.87
2022-11-19T02:57:45.459Z,14.30
2022-11-19T03:00:31.103Z,14.37
2022-11-19T03:03:26.035Z,15.03
2022-11-19T03:05:55.843Z,14.73
2022-11-19T03:08:22.828Z,14.53
2022-11-19T03:11:06.202Z,15.57
2022-11-19T03:13:58.641Z,14.87
2022-11-19T03:16:41.990Z,14.57
2022-11-19T03:19:18.331Z,14.97
2022-11-19T03:21:52.319Z,14.70
2022-11-19T03:24:30.235Z,14.37
2022-11-19T03:27:05.856Z,13.87
2022-11-19T03:29:33.506Z,14.47
2022-11-19T03:32:04.613Z,14.00
2022-11-19T03:34:31.854Z,14.60
2022-11-19T03:37:00.431Z,14.83
2022-11-19T03:39:27.607Z,13.83
2022-11-19T03:41:54.815Z,12.83
2022-11-19T03:44:30.623Z,14.40
2022-11-19T03:47:02.895Z,14.00
2022-11-19T03:49:32.235Z,13.40
2022-11-19T03:52:01.919Z,14.10
2022-11-19T03:54:28.842Z,13.97
2022-11-19T03:56:57.356Z,13.70
2022-11-19T03:59:29.183Z,13.70
2022-11-19T04:01:58.627Z,13.27
2022-11-19T04:04:37.711Z,13.17
2022-11-19T04:07:11.136Z,13.10
2022-11-19T04:09:39.327Z,13.07
2022-11-19T04:12:06.607Z,13.87
2022-11-19T04:14:33.382Z,12.27
2022-11-19T04:17:00.356Z,13.10
2022-11-19T04:19:27.198Z,12.77
2022-11-19T04:21:54.030Z,13.30
2022-11-19T04:24:20.841Z,13.37
2022-11-19T04:26:47.688Z,12.83
2022-11-19T04:29:14.639Z,12.50
2022-11-19T04:31:41.891Z,12.03
2022-11-19T04:34:08.780Z,12.57
2022-11-19T04:36:35.644Z,12.73
2022-11-19T04:39:02.564Z,12.27
2022-11-19T04:41:29.299Z,12.73
2022-11-19T04:43:56.181Z,13.57
2022-11-19T04:46:23.078Z,12.47
2022-11-19T04:48:49.908Z,12.13
2022-11-19T04:51:16.686Z,12.90
2022-11-19T04:53:44.087Z,12.93
2022-11-19T04:56:11.086Z,11.53
2022-11-19T04:58:38.032Z,12.47
2022-11-19T05:01:04.907Z,12.07
2022-11-19T05:03:31.721Z,12.70
2022-11-19T05:05:58.525Z,13.27
2022-11-19T05:08:25.390Z,12.70
2022-11-19T05:10:52.442Z,12.17
2022-11-19T05:13:19.179Z,13.30
2022-11-19T05:15:46.342Z,12.77
2022-11-19T05:18:13.836Z,11.30
2022-11-19T05:20:40.738Z,12.47
2022-11-19T05:23:07.521Z,12.30
2022-11-19T05:25:34.399Z,12.70
2022-11-19T05:28:01.251Z,11.40
2022-11-19T05:30:28.068Z,11.97
2022-11-19T05:32:54.914Z,11.50
2022-11-19T05:35:21.719Z,12.00
2022-11-19T05:37:49.174Z,11.60
2022-11-19T05:40:16.235Z,11.67
2022-11-19T05:42:43.651Z,12.13
2022-11-19T05:45:10.849Z,11.47
2022-11-19T05:47:37.635Z,11.70
2022-11-19T05:50:04.700Z,11.37
2022-11-19T05:52:31.858Z,12.27
2022-11-19T05:54:59.067Z,11.57
2022-11-19T05:57:25.997Z,10.57
2022-11-19T05:59:52.935Z,10.90
2022-11-19T06:02:20.330Z,11.13
2022-11-19T06:04:47.241Z,11.50
2022-11-19T06:07:14.094Z,10.50
2022-11-19T06:09:40.949Z,11.77
2022-11-19T06:12:07.846Z,10.87
2022-11-19T06:14:34.812Z,11.43
2022-11-19T06:17:01.770Z,11.53
2022-11-19T06:19:28.575Z,11.57
2022-11-19T06:21:55.508Z,10.70
2022-11-19T06:24:22.314Z,11.50
2022-11-19T06:26:49.140Z,11.03
2022-11-19T06:29:16.979Z,11.07
2022-11-19T06:31:44.098Z,11.03
2022-11-19T06:34:10.990Z,11.07
2022-11-19T06:36:41.930Z,10.20
2022-11-19T06:39:09.922Z,10.63
2022-11-19T06:41:37.092Z,10.63
2022-11-19T06:44:04.025Z,10.57
2022-11-19T06:46:31.328Z,10.07
2022-11-19T06:48:58.118Z,10.83
2022-11-19T06:51:24.991Z,10.30
2022-11-19T06:53:51.871Z,10.17
2022-11-19T06:56:18.789Z,11.50
2022-11-19T06:58:45.581Z,10.87
2022-11-19T07:01:14.518Z,10.47
2022-11-19T07:03:41.482Z,10.23
2022-11-19T07:06:08.868Z,10.77
2022-11-19T07:08:36.751Z,10.23
2022-11-19T07:11:23.839Z,9.80
2022-11-19T07:14:00.346Z,11.07
2022-11-19T07:16:31.491Z,13.53
2022-11-19T07:18:59.176Z,12.00
2022-11-19T07:21:26.195Z,10.33
2022-11-19T07:23:53.287Z,11.10
2022-11-19T07:26:20.140Z,10.90
2022-11-19T07:28:47.036Z,13.47
2022-11-19T07:31:14.029Z,11.97
2022-11-19T07:33:41.085Z,10.47
2022-11-19T07:36:11.619Z,11.43
2022-11-19T07:38:42.338Z,12.53
2022-11-19T07:41:27.751Z,12.90
2022-11-19T07:43:55.279Z,12.47
2022-11-19T07:46:22.180Z,11.83
2022-11-19T07:48:53.398Z,12.07
2022-11-19T07:51:20.943Z,13.07
2022-11-19T07:53:48.160Z,16.37
2022-11-19T07:56:15.002Z,19.13
2022-11-19T07:58:41.924Z,13.47
2022-11-19T08:01:13.134Z,14.57
2022-11-19T08:03:42.836Z,16.57
2022-11-19T08:06:10.140Z,13.57
2022-11-19T08:08:36.925Z,12.87
2022-11-19T08:11:05.014Z,12.93
2022-11-19T08:13:32.102Z,12.67
2022-11-19T08:15:59.649Z,13.00
2022-11-19T08:18:31.018Z,13.20
2022-11-19T08:21:08.660Z,11.83
2022-11-19T08:23:35.958Z,13.17
2022-11-19T08:26:03.198Z,11.80
2022-11-19T08:28:30.162Z,13.10
2022-11-19T08:30:57.777Z,12.83
2022-11-19T08:33:24.756Z,12.57
2022-11-19T08:35:54.444Z,13.63
2022-11-19T08:38:21.305Z,13.13
2022-11-19T08:40:52.518Z,11.50
2022-11-19T08:43:19.694Z,11.20
2022-11-19T08:45:52.963Z,15.67
2022-11-19T08:48:20.070Z,14.93
2022-11-19T08:50:46.907Z,17.20
2022-11-19T08:53:13.691Z,13.63
2022-11-19T08:55:40.630Z,10.63
2022-11-19T08:58:07.783Z,10.20
2022-11-19T09:00:35.781Z,10.63
2022-11-19T09:03:02.917Z,9.77
2022-11-19T09:05:29.664Z,11.03
2022-11-19T09:07:56.546Z,12.00
2022-11-19T09:10:23.527Z,10.30
2022-11-19T09:12:50.458Z,10.17
2022-11-19T09:15:17.352Z,10.67
2022-11-19T09:17:47.025Z,10.73
2022-11-19T09:20:14.364Z,10.67
2022-11-19T09:22:41.124Z,11.03
2022-11-19T09:25:09.174Z,10.40
2022-11-19T09:27:36.501Z,11.20
2022-11-19T09:30:03.844Z,10.47
2022-11-19T09:32:31.580Z,10.13
2022-11-19T09:34:58.496Z,9.77
2022-11-19T09:37:25.275Z,10.63
2022-11-19T09:39:52.150Z,9.57
2022-11-19T09:42:32.747Z,10.57
2022-11-19T09:45:08.840Z,10.50
2022-11-19T09:47:35.586Z,8.90
2022-11-19T09:50:11.191Z,76.40
2022-11-19T09:52:41.491Z,11.47
2022-11-19T09:55:13.933Z,9.37
2022-11-19T09:57:45.911Z,8.33
2022-11-19T10:00:16.496Z,8.33
2022-11-19T10:02:44.168Z,8.13
2022-11-19T10:05:26.934Z,8.03
2022-11-19T10:08:26.152Z,8.63
2022-11-19T10:11:16.356Z,8.97
2022-11-19T10:13:58.794Z,9.30
2022-11-19T10:16:39.213Z,8.20
2022-11-19T10:19:20.883Z,9.10
2022-11-19T10:21:56.706Z,9.50
2022-11-19T10:24:34.588Z,9.57
2022-11-19T10:27:08.340Z,9.10
2022-11-19T10:29:38.357Z,9.50
2022-11-19T10:32:17.915Z,8.30
2022-11-19T10:34:45.374Z,7.87
2022-11-19T10:37:14.591Z,7.60
2022-11-19T10:39:44.176Z,7.67
2022-11-19T10:42:19.103Z,7.50
2022-11-19T10:44:49.796Z,7.97
2022-11-19T10:47:22.547Z,7.43
2022-11-19T10:49:55.656Z,7.23
2022-11-19T10:52:42.783Z,7.40
2022-11-19T10:55:28.521Z,7.33
2022-11-19T10:58:15.574Z,6.73
2022-11-19T11:00:43.029Z,6.50
2022-11-19T11:03:21.200Z,7.00
2022-11-19T11:05:58.720Z,6.57
2022-11-19T11:08:25.615Z,7.10
2022-11-19T11:10:52.996Z,7.33
2022-11-19T11:13:38.437Z,6.70
2022-11-19T11:16:13.028Z,6.27
2022-11-19T11:18:41.576Z,6.70
2022-11-19T11:21:13.312Z,10.73
2022-11-19T11:23:51.991Z,14.80
2022-11-19T11:26:21.192Z,7.67
2022-11-19T11:28:59.206Z,8.53
2022-11-19T11:31:45.163Z,7.87
2022-11-19T11:34:15.810Z,6.53
2022-11-19T11:36:43.777Z,8.13
2022-11-19T11:39:22.614Z,8.20
2022-11-19T11:42:07.076Z,8.87
2022-11-19T11:44:38.771Z,8.43
2022-11-19T11:47:25.961Z,9.57
2022-11-19T11:50:05.443Z,8.47
2022-11-19T11:52:43.969Z,8.60
2022-11-19T11:55:25.873Z,8.63
2022-11-19T11:58:00.062Z,10.43
2022-11-19T12:00:32.173Z,8.50
2022-11-19T12:03:00.666Z,10.30
2022-11-19T12:05:30.202Z,10.93
2022-11-19T12:08:02.906Z,11.40
2022-11-19T12:10:49.038Z,9.37
2022-11-19T12:13:40.828Z,13.17
2022-11-19T12:16:14.026Z,12.93
2022-11-19T12:18:59.329Z,12.13
2022-11-19T12:21:45.037Z,12.80
2022-11-19T12:24:37.882Z,12.67
2022-11-19T12:27:07.843Z,12.47
2022-11-19T12:29:40.907Z,11.93
2022-11-19T12:32:26.616Z,10.17
2022-11-19T12:35:04.030Z,11.80
2022-11-19T12:37:42.826Z,11.33
2022-11-19T12:40:19.248Z,11.27
2022-11-19T12:42:46.129Z,11.50
2022-11-19T12:45:21.751Z,11.60
2022-11-19T12:47:58.094Z,11.03
2022-11-19T12:50:29.638Z,9.27
2022-11-19T12:52:59.305Z,9.33
2022-11-19T12:55:38.844Z,11.93
2022-11-19T12:58:25.753Z,14.70
2022-11-19T13:01:12.892Z,10.20
2022-11-19T13:04:06.515Z,14.40
2022-11-19T13:06:41.126Z,14.33
2022-11-19T13:09:13.721Z,16.13
2022-11-19T13:11:47.968Z,26.23
2022-11-19T13:14:27.973Z,15.00
2022-11-19T13:16:55.896Z,16.40
2022-11-19T13:19:24.923Z,19.93
2022-11-19T13:22:00.938Z,14.57
2022-11-19T13:24:39.528Z,13.63
2022-11-19T13:27:08.064Z,12.07
2022-11-19T13:29:41.592Z,15.00
2022-11-19T13:32:14.210Z,14.00
2022-11-19T13:34:42.184Z,17.50
2022-11-19T13:37:16.986Z,15.57
2022-11-19T13:39:47.829Z,11.87
2022-11-19T13:42:34.951Z,13.53
2022-11-19T13:45:02.026Z,12.67
2022-11-19T13:47:42.701Z,15.63
2022-11-19T13:50:20.631Z,13.53
2022-11-19T13:52:54.193Z,10.27
2022-11-19T13:55:27.136Z,11.00
2022-11-19T13:57:54.074Z,10.90
2022-11-19T14:00:25.470Z,10.73
2022-11-19T14:03:10.992Z,9.57
2022-11-19T14:05:50.795Z,10.30
2022-11-19T14:08:27.167Z,11.33
2022-11-19T14:11:12.146Z,11.10
2022-11-19T14:14:34.820Z,9.70
2022-11-19T14:17:40.447Z,11.67
2022-11-19T14:20:45.626Z,11.47
2022-11-19T14:24:07.485Z,12.30
2022-11-19T14:26:40.378Z,12.03
2022-11-19T14:29:16.140Z,11.97
2022-11-19T14:32:01.222Z,11.50
2022-11-19T14:34:29.570Z,11.07
2022-11-19T14:36:58.027Z,11.40
2022-11-19T14:39:29.020Z,11.93
2022-11-19T14:42:15.314Z,12.10
2022-11-19T14:44:43.115Z,14.07
2022-11-19T14:47:30.080Z,13.57
2022-11-19T14:49:57.091Z,10.60
2022-11-19T14:52:27.832Z,8.43
2022-11-19T14:55:00.156Z,8.63
2022-11-19T14:57:37.799Z,9.00
2022-11-19T15:00:06.683Z,13.83
2022-11-19T15:02:35.670Z,10.90
2022-11-19T15:05:05.460Z,9.17
2022-11-19T15:07:37.227Z,10.07
2022-11-19T15:10:07.031Z,9.40
2022-11-19T15:12:45.409Z,9.67
2022-11-19T15:15:21.131Z,9.20
2022-11-19T15:18:02.967Z,9.77
2022-11-19T15:20:35.990Z,9.07
2022-11-19T15:23:15.319Z,8.83
2022-11-19T15:25:51.304Z,8.23
2022-11-19T15:28:23.751Z,7.50
2022-11-19T15:31:02.782Z,7.93
2022-11-19T15:33:32.402Z,8.70
2022-11-19T15:36:13.440Z,9.60
2022-11-19T15:38:52.537Z,9.00
2022-11-19T15:41:22.505Z,9.27
2022-11-19T15:43:52.005Z,9.07
2022-11-19T15:46:22.223Z,9.80
2022-11-19T15:48:51.758Z,11.00
2022-11-19T15:51:19.529Z,8.53
2022-11-19T15:54:07.145Z,8.47
2022-11-19T15:56:43.732Z,8.30
2022-11-19T15:59:13.263Z,8.97
2022-11-19T16:01:41.420Z,9.50
2022-11-19T16:04:14.453Z,9.67
2022-11-19T16:06:44.931Z,9.97
2022-11-19T16:09:18.041Z,9.77
2022-11-19T16:12:03.961Z,10.47
2022-11-19T16:14:49.535Z,10.17
2022-11-19T16:17:34.845Z,10.67
2022-11-19T16:20:04.025Z,10.87
2022-11-19T16:22:35.890Z,11.27
2022-11-19T16:25:11.547Z,11.97
2022-11-19T16:27:41.113Z,14.20
2022-11-19T16:30:16.069Z,12.63
2022-11-19T16:32:42.954Z,10.73
2022-11-19T16:35:11.097Z,10.57
2022-11-19T16:37:38.559Z,11.33
2022-11-19T16:40:06.980Z,13.50
2022-11-19T16:42:33.939Z,13.27
2022-11-19T16:45:10.093Z,14.43
2022-11-19T16:47:38.754Z,14.30
2022-11-19T16:50:24.044Z,15.77
2022-11-19T16:52:51.560Z,15.37
2022-11-19T16:55:18.303Z,14.93
2022-11-19T16:57:56.302Z,16.93
2022-11-19T17:00:31.059Z,16.27
2022-11-19T17:02:58.241Z,16.40
2022-11-19T17:05:28.739Z,15.57
2022-11-19T17:08:06.798Z,15.30
2022-11-19T17:10:34.913Z,15.40
2022-11-19T17:13:04.295Z,16.50
2022-11-19T17:15:47.416Z,14.63
2022-11-19T17:18:21.067Z,13.97
2022-11-19T17:20:51.785Z,14.70
2022-11-19T17:23:18.549Z,16.73
2022-11-19T17:25:46.871Z,16.73
2022-11-19T17:28:19.044Z,17.23
2022-11-19T17:30:46.275Z,17.50
2022-11-19T17:33:15.261Z,18.23
2022-11-19T17:35:43.326Z,18.00
2022-11-19T17:38:10.451Z,19.20
2022-11-19T17:40:38.592Z,17.33
2022-11-19T17:43:27.846Z,17.83
2022-11-19T17:45:54.808Z,18.93
2022-11-19T17:48:22.723Z,18.83
2022-11-19T17:50:49.595Z,17.57
2022-11-19T17:53:16.443Z,19.03
2022-11-19T17:55:43.823Z,17.87
2022-11-19T17:58:10.620Z,19.40
2022-11-19T18:00:37.611Z,18.87
2022-11-19T18:03:04.368Z,17.90
2022-11-19T18:05:36.539Z,17.93
2022-11-19T18:08:03.994Z,16.20
2022-11-19T18:10:30.740Z,17.60
2022-11-19T18:12:57.566Z,17.10
2022-11-19T18:15:24.814Z,16.57
2022-11-19T18:17:52.192Z,15.73
2022-11-19T18:20:18.994Z,15.73
2022-11-19T18:22:45.879Z,15.43
2022-11-19T18:25:14.735Z,16.53
2022-11-19T18:27:41.622Z,16.47
2022-11-19T18:30:08.716Z,15.53
2022-11-19T18:32:35.525Z,16.97
2022-11-19T18:35:02.377Z,17.07
2022-11-19T18:37:29.834Z,18.23
2022-11-19T18:39:57.116Z,19.43
2022-11-19T18:42:24.126Z,17.83
2022-11-19T18:44:51.355Z,20.90
2022-11-19T18:47:19.066Z,20.83
2022-11-19T18:49:46.037Z,21.00
2022-11-19T18:52:15.320Z,22.40
2022-11-19T18:54:42.536Z,22.40
2022-11-19T18:57:09.576Z,21.87
2022-11-19T18:59:36.370Z,21.70
2022-11-19T19:02:03.267Z,22.33
2022-11-19T19:04:30.385Z,22.90
2022-11-19T19:06:59.405Z,22.43
2022-11-19T19:09:26.594Z,24.20
2022-11-19T19:12:13.972Z,22.23
2022-11-19T19:14:42.103Z,23.63
2022-11-19T19:17:09.081Z,24.73
2022-11-19T19:19:36.068Z,24.30
2022-11-19T19:22:02.955Z,23.10
2022-11-19T19:24:30.668Z,23.37
2022-11-19T19:26:57.612Z,23.53
2022-11-19T19:29:24.839Z,23.70
2022-11-19T19:31:52.193Z,23.27
2022-11-19T19:34:19.560Z,23.90
2022-11-19T19:36:51.775Z,23.17
2022-11-19T19:39:21.186Z,24.43
2022-11-19T19:41:49.611Z,24.77
2022-11-19T19:44:17.415Z,24.20
2022-11-19T19:46:47.719Z,24.57
2022-11-19T19:49:15.753Z,23.80
2022-11-19T19:51:42.807Z,24.13
2022-11-19T19:54:10.169Z,24.07
2022-11-19T19:56:37.111Z,24.50
2022-11-19T19:59:04.213Z,25.23
2022-11-19T20:01:32.830Z,28.70
2022-11-19T20:04:01.611Z,27.17
2022-11-19T20:06:29.104Z,26.57
2022-11-19T20:08:56.163Z,27.40
2022-11-19T20:11:26.545Z,26.73
2022-11-19T20:13:54.703Z,26.03
2022-11-19T20:16:23.328Z,26.53
2022-11-19T20:18:51.026Z,26.33
2022-11-19T20:21:19.655Z,26.97
2022-11-19T20:23:46.814Z,27.40
2022-11-19T20:26:15.879Z,28.17
2022-11-19T20:28:42.912Z,27.47
2022-11-19T20:31:09.811Z,27.43
2022-11-19T20:33:36.979Z,28.93
2022-11-19T20:36:04.196Z,28.17
2022-11-19T20:38:31.146Z,38.93
2022-11-19T20:40:59.241Z,38.33
2022-11-19T20:43:51.445Z,35.60
2022-11-19T20:46:21.820Z,33.70
2022-11-19T20:48:49.080Z,28.50
2022-11-19T20:51:20.890Z,28.60
2022-11-19T20:53:47.706Z,30.07
2022-11-19T20:56:14.787Z,28.00
2022-11-19T20:58:41.716Z,27.10
2022-11-19T21:01:11.830Z,28.93
2022-11-19T21:03:39.404Z,27.40
2022-11-19T21:06:07.671Z,29.20
2022-11-19T21:08:35.290Z,30.30
2022-11-19T21:11:03.628Z,30.53
2022-11-19T21:13:30.616Z,29.53
2022-11-19T21:15:58.113Z,30.03
2022-11-19T21:18:25.547Z,30.80
2022-11-19T21:20:52.382Z,30.43
2022-11-19T21:23:19.645Z,30.20
2022-11-19T21:25:46.547Z,32.20
2022-11-19T21:28:14.446Z,31.80
2022-11-19T21:30:41.493Z,30.80
2022-11-19T21:33:08.383Z,31.17
2022-11-19T21:35:39.911Z,32.93
2022-11-19T21:38:11.896Z,29.90
2022-11-19T21:40:39.732Z,31.73
2022-11-19T21:43:07.150Z,32.53
2022-11-19T21:45:34.058Z,32.57
2022-11-19T21:48:00.845Z,32.27
2022-11-19T21:50:27.924Z,31.13
2022-11-19T21:52:54.748Z,26.67
2022-11-19T21:55:21.531Z,30.10
2022-11-19T21:57:48.396Z,31.47
2022-11-19T22:00:15.883Z,27.73
2022-11-19T22:02:43.510Z,27.97
2022-11-19T22:05:10.604Z,29.13
2022-11-19T22:07:37.446Z,28.93
2022-11-19T22:10:04.430Z,30.53
2022-11-19T22:12:31.508Z,29.43
2022-11-19T22:14:58.359Z,29.90
2022-11-19T22:17:30.128Z,29.13
2022-11-19T22:19:59.486Z,28.03
2022-11-19T22:22:26.306Z,27.50
2022-11-19T22:24:53.272Z,28.93
2022-11-19T22:27:20.033Z,28.90
2022-11-19T22:29:47.024Z,29.40
2022-11-19T22:32:14.010Z,28.33
2022-11-19T22:34:40.782Z,28.20
2022-11-19T22:37:08.164Z,28.53
2022-11-19T22:39:35.437Z,28.57
2022-11-19T22:42:02.289Z,30.50
2022-11-19T22:44:29.049Z,31.50
2022-11-19T22:46:58.821Z,30.80
2022-11-19T22:49:26.669Z,30.47
2022-11-19T22:51:53.612Z,30.37
2022-11-19T22:54:20.485Z,29.67
2022-11-19T22:56:47.306Z,28.20
2022-11-19T22:59:14.140Z,29.60
2022-11-19T23:01:41.036Z,29.43
2022-11-19T23:04:07.882Z,28.13
2022-11-19T23:06:35.724Z,28.83
2022-11-19T23:09:03.848Z,28.17
2022-11-19T23:11:49.042Z,29.73
2022-11-19T23:14:16.966Z,29.37
2022-11-19T23:16:43.799Z,28.80
2022-11-19T23:19:11.899Z,28.97
2022-11-19T23:21:39.087Z,29.17
2022-11-19T23:24:06.042Z,29.80
2022-11-19T23:26:33.575Z,28.50
2022-11-19T23:29:00.697Z,28.83
2022-11-19T23:31:29.030Z,29.67
2022-11-19T23:33:59.101Z,29.40
2022-11-19T23:36:31.291Z,27.17
2022-11-19T23:38:59.009Z,30.73
2022-11-19T23:41:26.228Z,28.23
2022-11-19T23:43:53.674Z,28.67
2022-11-19T23:46:21.763Z,29.27
2022-11-19T23:48:49.723Z,30.77
2022-11-19T23:51:17.778Z,30.67
2022-11-19T23:53:44.631Z,30.33
2022-11-19T23:56:12.379Z,32.20
2022-11-19T23:58:39.449Z,29.47
